MSC Jordan — HPMK — position and weather

sailwx.info

Track history (hours):
 
Tides and Currents Weather Stations Pressure Air Temp Water Temp Dewpoint Dewpoint Depression Visibility Wind Speed Wind Dir Waves Ship Positions

MSC Jordan

Last reported at 2014-Sep-01 13:33 UTC. Time now 2014-Sep-01 13:43 UTC.
Position N 51°24' E 002°35'.

Length 237 m; draft 8.6 m.

Type: Ship. MMSI: 355194000.

Date/timePositionNaut miles runAvg speedWind from/ knotsBaromVisibWave heightAir tempDewpointWater temp
2014-Sep-01 13:33N 51°24' E 002°35'0 0.1
2014-Sep-01 12:21N 51°24' E 002°35'0 0.0
2014-Sep-01 11:30N 51°24' E 002°35'0 0.0
2014-Sep-01 10:33N 51°24' E 002°35'0 0.1
2014-Sep-01 09:21N 51°24' E 002°35'0 0.1
2014-Sep-01 08:33N 51°24' E 002°35'0 0.1
2014-Sep-01 07:33N 51°24' E 002°35'5 4.9
2014-Sep-01 06:33N 51°21' E 002°29'1817.5
2014-Sep-01 05:33N 51°13' E 002°04'1818.5
2014-Sep-01 04:34N 51°02' E 001°41'1818.5
2014-Sep-01 03:33N 50°47' E 001°24'1817.5
2014-Sep-01 02:33N 50°34' E 001°05'1717.0
2014-Sep-01 01:33N 50°26' E 000°42'1818.1
2014-Sep-01 00:33N 50°21' E 000°14'  
2014-Aug-29 03:19N 35°24' W 009°56'7715.8
2014-Aug-28 22:29N 34°07' W 010°02'1615.7
2014-Aug-28 21:27N 33°51' W 010°03'1815.7
2014-Aug-28 20:17N 33°33' W 010°03'1115.6
2014-Aug-28 19:33N 33°21' W 010°04'1515.4
2014-Aug-28 18:33N 33°06' W 010°04'2215.4
2014-Aug-28 17:08N 32°44' W 010°06'915.5
2014-Aug-28 16:33N 32°35' W 010°06'1515.1
2014-Aug-28 15:33N 32°20' W 010°06'3014.8
2014-Aug-28 13:33N 31°50' W 010°07'  
2014-Aug-25 03:33N 27°02' W 015°37'  
Track history (hours):
 
Tides and Currents Weather Stations Pressure Air Temp Water Temp Dewpoint Dewpoint Depression Visibility Wind Speed Wind Dir Waves Ship Positions

MSC Jordan

Last reported at 2014-Sep-01 13:33 UTC. Time now 2014-Sep-01 13:43 UTC.
Position N 51°24' E 002°35'.

Length 237 m; draft 8.6 m.

Type: Ship. MMSI: 355194000.

Date/timePositionNaut miles runAvg speedWind from/ knotsBaromVisibWave heightAir tempDewpointWater temp
2014-Sep-01 13:33N 51°24' E 002°35'0 0.1
2014-Sep-01 12:21N 51°24' E 002°35'0 0.0
2014-Sep-01 11:30N 51°24' E 002°35'0 0.0
2014-Sep-01 10:33N 51°24' E 002°35'0 0.1
2014-Sep-01 09:21N 51°24' E 002°35'0 0.1
2014-Sep-01 08:33N 51°24' E 002°35'0 0.1
2014-Sep-01 07:33N 51°24' E 002°35'5 4.9
2014-Sep-01 06:33N 51°21' E 002°29'1817.5
2014-Sep-01 05:33N 51°13' E 002°04'1818.5
2014-Sep-01 04:34N 51°02' E 001°41'1818.5
2014-Sep-01 03:33N 50°47' E 001°24'1817.5
2014-Sep-01 02:33N 50°34' E 001°05'1717.0
2014-Sep-01 01:33N 50°26' E 000°42'1818.1
2014-Sep-01 00:33N 50°21' E 000°14'  
2014-Aug-29 03:19N 35°24' W 009°56'7715.8
2014-Aug-28 22:29N 34°07' W 010°02'1615.7
2014-Aug-28 21:27N 33°51' W 010°03'1815.7
2014-Aug-28 20:17N 33°33' W 010°03'1115.6
2014-Aug-28 19:33N 33°21' W 010°04'1515.4
2014-Aug-28 18:33N 33°06' W 010°04'2215.4
2014-Aug-28 17:08N 32°44' W 010°06'915.5
2014-Aug-28 16:33N 32°35' W 010°06'1515.1
2014-Aug-28 15:33N 32°20' W 010°06'3014.8
2014-Aug-28 13:33N 31°50' W 010°07'  
2014-Aug-25 03:33N 27°02' W 015°37'  

Dump ship's entire track history